Time;durP1;ratioP1;P1;durP2;ratioP2;P2;SDS_P1;SDS_P2;PMS_P1;PMS_P2;Temp;Humidity;BMP_temperature;BMP_pressure;BME280_temperature;BME280_humidity;BME280_pressure;Samples;Min_cycle;Max_cycle;Signal;HPM_P1;HPM_P2
2022/06/24 00:00:57;;;;;;;3.92;1.30;;;;;;;;;;5063486;28;20424;-70
2022/06/24 00:03:24;;;;;;;4.20;1.20;;;;;;;;;;5063522;28;20197;-70
2022/06/24 00:05:50;;;;;;;7.13;1.30;;;;;;;;;;5063455;28;20225;-70
2022/06/24 00:08:16;;;;;;;6.22;1.63;;;;;;;;;;5063358;28;20586;-70
2022/06/24 00:10:43;;;;;;;10.02;1.55;;;;;;;;;;5063206;28;20221;-70
2022/06/24 00:13:12;;;;;;;8.27;1.20;;;;;;;;;;5063450;28;20284;-70
2022/06/24 00:15:38;;;;;;;4.80;1.10;;;;;;;;;;5063164;28;20197;-70
2022/06/24 00:18:12;;;;;;;2.75;1.20;;;;;;;;;;5063208;28;20224;-70
2022/06/24 00:20:42;;;;;;;3.65;1.30;;;;;;;;;;5063464;28;20197;-70
2022/06/24 00:23:09;;;;;;;2.50;1.33;;;;;;;;;;5063290;28;20423;-70
2022/06/24 00:25:36;;;;;;;2.05;1.00;;;;;;;;;;5063186;28;20268;-70
2022/06/24 00:28:03;;;;;;;2.75;1.20;;;;;;;;;;5062787;28;20393;-70
2022/06/24 00:30:35;;;;;;;8.27;1.35;;;;;;;;;;5063056;28;20225;-70
2022/06/24 00:33:11;;;;;;;4.53;1.10;;;;;;;;;;5063258;28;20197;-70
2022/06/24 00:35:38;;;;;;;4.55;1.50;;;;;;;;;;5063023;28;20268;-70
2022/06/24 00:38:20;;;;;;;1.75;1.30;;;;;;;;;;5062682;28;20196;-70
2022/06/24 00:40:47;;;;;;;2.40;1.10;;;;;;;;;;5062799;28;20431;-70
2022/06/24 00:43:19;;;;;;;2.10;1.10;;;;;;;;;;5062659;28;20235;-70
2022/06/24 00:45:49;;;;;;;8.27;1.50;;;;;;;;;;5062745;28;20197;-70
2022/06/24 00:48:16;;;;;;;3.47;1.30;;;;;;;;;;5062756;28;20197;-70
2022/06/24 00:50:45;;;;;;;6.00;1.58;;;;;;;;;;5062592;28;20536;-70
2022/06/24 00:53:11;;;;;;;3.08;1.23;;;;;;;;;;5062424;28;20505;-70
2022/06/24 00:55:38;;;;;;;2.28;1.33;;;;;;;;;;5062758;28;20197;-70
2022/06/24 00:58:05;;;;;;;3.53;1.55;;;;;;;;;;5062481;28;20402;-70
2022/06/24 01:00:33;;;;;;;3.05;1.30;;;;;;;;;;5062615;28;20200;-70
2022/06/24 01:03:02;;;;;;;1.67;1.05;;;;;;;;;;5062540;28;20208;-70
2022/06/24 01:05:29;;;;;;;3.45;1.20;;;;;;;;;;5062303;28;20271;-70
2022/06/24 01:07:55;;;;;;;3.10;1.30;;;;;;;;;;5062121;28;20204;-70
2022/06/24 01:10:22;;;;;;;4.95;1.23;;;;;;;;;;5062487;28;20523;-70
2022/06/24 01:12:48;;;;;;;6.38;1.20;;;;;;;;;;5062449;28;20196;-70
2022/06/24 01:15:14;;;;;;;5.82;1.30;;;;;;;;;;5061787;28;20656;-70
2022/06/24 01:17:41;;;;;;;4.38;1.00;;;;;;;;;;5062157;28;20204;-70
2022/06/24 01:20:10;;;;;;;7.47;1.50;;;;;;;;;;5062249;28;20197;-70
2022/06/24 01:22:37;;;;;;;3.50;1.25;;;;;;;;;;5062427;28;20203;-70
2022/06/24 01:25:04;;;;;;;7.50;1.25;;;;;;;;;;5062467;28;20427;-70
2022/06/24 01:27:30;;;;;;;4.35;1.88;;;;;;;;;;5061305;28;20528;-70
2022/06/24 01:29:57;;;;;;;5.57;1.63;;;;;;;;;;5062051;28;20529;-70
2022/06/24 01:32:23;;;;;;;5.07;1.23;;;;;;;;;;5062364;28;20401;-70
2022/06/24 01:34:49;;;;;;;2.20;1.42;;;;;;;;;;5062228;28;20197;-70
2022/06/24 01:37:16;;;;;;;5.20;1.15;;;;;;;;;;5062030;28;20197;-70
2022/06/24 01:39:44;;;;;;;5.68;1.35;;;;;;;;;;5062135;28;20204;-70
2022/06/24 01:42:10;;;;;;;12.18;1.70;;;;;;;;;;5061992;28;20192;-70
2022/06/24 01:44:36;;;;;;;5.53;1.58;;;;;;;;;;5062051;28;20773;-70
2022/06/24 01:47:03;;;;;;;3.60;1.45;;;;;;;;;;5062039;28;20481;-70
2022/06/24 01:49:29;;;;;;;5.07;1.63;;;;;;;;;;5062126;28;20197;-70
2022/06/24 01:51:56;;;;;;;6.78;1.63;;;;;;;;;;5062029;28;20224;-70
2022/06/24 01:54:23;;;;;;;2.45;1.60;;;;;;;;;;5061942;28;20243;-70
2022/06/24 01:56:51;;;;;;;4.78;1.75;;;;;;;;;;5061504;28;20205;-70
2022/06/24 01:59:17;;;;;;;2.20;1.63;;;;;;;;;;5062025;28;20201;-70
2022/06/24 02:01:43;;;;;;;4.50;1.70;;;;;;;;;;5062030;28;20200;-70
2022/06/24 02:07:12;;;;;;;3.80;1.63;;;;;;;;;;5061243;28;20211;-70
2022/06/24 02:13:26;;;;;;;4.57;1.67;;;;;;;;;;5061844;28;20266;-70
2022/06/24 02:15:10;;;;;;;3.53;1.60;;;;;;;;;;5061620;28;20203;-70
2022/06/24 02:17:36;;;;;;;7.53;1.27;;;;;;;;;;5061496;28;20197;-70
2022/06/24 02:20:03;;;;;;;2.63;1.58;;;;;;;;;;5061637;28;20197;-70
2022/06/24 02:22:29;;;;;;;6.13;1.92;;;;;;;;;;5061669;28;20239;-70
2022/06/24 02:24:55;;;;;;;6.43;1.80;;;;;;;;;;5061821;28;20205;-70
2022/06/24 02:27:21;;;;;;;3.03;1.23;;;;;;;;;;5064225;28;20197;-70
2022/06/24 02:29:49;;;;;;;2.38;1.35;;;;;;;;;;5065374;28;20201;-70
2022/06/24 02:32:15;;;;;;;8.27;1.58;;;;;;;;;;5065271;28;20228;-70
2022/06/24 02:34:41;;;;;;;3.15;1.52;;;;;;;;;;5065200;28;20220;-70
2022/06/24 02:37:08;;;;;;;5.10;2.03;;;;;;;;;;5064896;28;20204;-70
2022/06/24 02:39:34;;;;;;;2.50;1.10;;;;;;;;;;5065542;28;20270;-70
2022/06/24 02:42:00;;;;;;;2.75;1.70;;;;;;;;;;5065236;28;20423;-69
2022/06/24 02:44:26;;;;;;;4.03;1.70;;;;;;;;;;5065226;28;20627;-69
2022/06/24 02:46:54;;;;;;;7.35;1.88;;;;;;;;;;5064729;28;20242;-69
2022/06/24 02:49:20;;;;;;;5.45;1.90;;;;;;;;;;5064838;28;20197;-70
2022/06/24 02:51:47;;;;;;;3.55;1.75;;;;;;;;;;5064731;28;20239;-69
2022/06/24 02:54:13;;;;;;;4.22;2.28;;;;;;;;;;5065134;28;20197;-69
2022/06/24 02:56:39;;;;;;;5.28;2.00;;;;;;;;;;5064580;28;20201;-69
2022/06/24 02:59:05;;;;;;;3.15;1.85;;;;;;;;;;5064702;28;20197;-69
2022/06/24 03:01:32;;;;;;;4.70;2.05;;;;;;;;;;5064818;28;20377;-69
2022/06/24 03:03:59;;;;;;;4.22;2.08;;;;;;;;;;5064797;28;20552;-69
2022/06/24 03:06:25;;;;;;;6.32;1.83;;;;;;;;;;5064212;28;20416;-69
2022/06/24 03:08:52;;;;;;;3.47;1.90;;;;;;;;;;5064755;28;20197;-69
2022/06/24 03:11:18;;;;;;;5.40;2.10;;;;;;;;;;5064462;28;20263;-69
2022/06/24 03:13:44;;;;;;;6.55;1.92;;;;;;;;;;5064121;28;20197;-69
2022/06/24 03:16:10;;;;;;;3.13;1.77;;;;;;;;;;5064226;28;20443;-70
2022/06/24 03:18:37;;;;;;;5.22;1.77;;;;;;;;;;5064542;28;20197;-70
2022/06/24 03:21:06;;;;;;;9.23;1.95;;;;;;;;;;5064321;28;20369;-69
2022/06/24 03:23:33;;;;;;;7.05;1.83;;;;;;;;;;5064529;28;20197;-69
2022/06/24 03:26:01;;;;;;;3.08;1.80;;;;;;;;;;5064062;28;20197;-69
2022/06/24 03:28:27;;;;;;;3.20;1.85;;;;;;;;;;5064303;28;20201;-69
2022/06/24 03:30:54;;;;;;;5.38;1.92;;;;;;;;;;5064255;28;20197;-69
2022/06/24 03:33:20;;;;;;;5.60;1.80;;;;;;;;;;5064278;28;20197;-69
2022/06/24 03:35:46;;;;;;;5.72;2.10;;;;;;;;;;5065021;28;20201;-70
2022/06/24 03:38:14;;;;;;;3.17;1.70;;;;;;;;;;5068120;28;20197;-70
2022/06/24 03:40:40;;;;;;;8.23;2.50;;;;;;;;;;5064526;28;20504;-69
2022/06/24 03:43:07;;;;;;;6.80;2.10;;;;;;;;;;5064001;28;20193;-69
2022/06/24 03:45:33;;;;;;;3.72;2.00;;;;;;;;;;5064166;28;20201;-70
2022/06/24 03:47:59;;;;;;;9.55;1.55;;;;;;;;;;5063676;28;20197;-69
2022/06/24 03:50:25;;;;;;;4.68;1.75;;;;;;;;;;5064128;28;20365;-69
2022/06/24 03:52:52;;;;;;;2.72;1.55;;;;;;;;;;5063868;28;20455;-69
2022/06/24 03:55:19;;;;;;;7.10;1.80;;;;;;;;;;5063905;28;20381;-69
2022/06/24 03:57:45;;;;;;;4.70;1.60;;;;;;;;;;5063608;28;20201;-69
2022/06/24 04:00:12;;;;;;;4.13;1.95;;;;;;;;;;5063717;28;20204;-70
2022/06/24 04:02:40;;;;;;;4.60;1.55;;;;;;;;;;5064086;28;20231;-70
2022/06/24 04:05:07;;;;;;;6.72;1.83;;;;;;;;;;5063586;28;20216;-69
2022/06/24 04:07:34;;;;;;;7.07;1.88;;;;;;;;;;5063356;28;20204;-69
2022/06/24 04:10:00;;;;;;;13.35;2.25;;;;;;;;;;5063411;28;20197;-70
2022/06/24 04:12:27;;;;;;;3.42;1.92;;;;;;;;;;5063318;28;20278;-70
2022/06/24 04:17:38;;;;;;;3.42;1.80;;;;;;;;;;5063427;28;20191;-70
2022/06/24 04:20:04;;;;;;;7.70;2.10;;;;;;;;;;5063584;28;20243;-69
2022/06/24 04:22:31;;;;;;;4.82;1.90;;;;;;;;;;5063454;28;20196;-69
2022/06/24 04:24:57;;;;;;;8.80;2.35;;;;;;;;;;5063228;28;20204;-69
2022/06/24 04:27:23;;;;;;;9.07;2.33;;;;;;;;;;5062680;28;20197;-69
2022/06/24 04:29:51;;;;;;;7.35;2.78;;;;;;;;;;5063591;28;20243;-69
2022/06/24 04:32:17;;;;;;;7.32;2.67;;;;;;;;;;5063126;28;20259;-69
2022/06/24 04:34:43;;;;;;;8.68;2.50;;;;;;;;;;5063367;28;20204;-69
2022/06/24 04:37:09;;;;;;;9.43;2.60;;;;;;;;;;5062848;28;20243;-70
2022/06/24 04:39:36;;;;;;;6.57;2.70;;;;;;;;;;5063143;28;20400;-70
2022/06/24 04:42:02;;;;;;;8.63;2.75;;;;;;;;;;5063135;28;20193;-69
2022/06/24 04:44:28;;;;;;;9.38;2.60;;;;;;;;;;5063208;28;20235;-70
2022/06/24 04:46:56;;;;;;;5.22;2.88;;;;;;;;;;5062624;28;20196;-70
2022/06/24 04:49:22;;;;;;;8.15;2.80;;;;;;;;;;5062297;28;20193;-70
2022/06/24 04:51:48;;;;;;;4.30;2.30;;;;;;;;;;5062642;28;20220;-70
2022/06/24 04:54:15;;;;;;;6.18;2.78;;;;;;;;;;5062510;28;20204;-70
2022/06/24 04:56:41;;;;;;;7.07;2.58;;;;;;;;;;5062225;28;20251;-70
2022/06/24 04:59:08;;;;;;;5.13;2.40;;;;;;;;;;5062611;28;20227;-70
2022/06/24 05:01:34;;;;;;;6.32;3.47;;;;;;;;;;5062687;28;20433;-70
2022/06/24 05:04:02;;;;;;;9.55;3.90;;;;;;;;;;5062603;28;20197;-70
2022/06/24 05:06:29;;;;;;;12.80;3.85;;;;;;;;;;5062407;28;20232;-71
2022/06/24 05:08:55;;;;;;;9.02;3.30;;;;;;;;;;5062404;28;20243;-70
2022/06/24 05:11:22;;;;;;;8.02;3.30;;;;;;;;;;5062097;28;20201;-70
2022/06/24 05:13:48;;;;;;;4.93;2.70;;;;;;;;;;5062417;28;20196;-70
2022/06/24 05:16:14;;;;;;;8.05;3.10;;;;;;;;;;5062005;28;20196;-70
2022/06/24 05:18:40;;;;;;;8.43;3.20;;;;;;;;;;5062143;28;20246;-70
2022/06/24 05:21:08;;;;;;;10.60;2.90;;;;;;;;;;5062040;28;20212;-70
2022/06/24 05:23:34;;;;;;;8.02;2.67;;;;;;;;;;5062176;28;20239;-70
2022/06/24 05:26:00;;;;;;;5.65;2.60;;;;;;;;;;5061804;28;20242;-70
2022/06/24 05:28:26;;;;;;;6.25;3.08;;;;;;;;;;5062225;28;20379;-70
2022/06/24 05:30:56;;;;;;;5.45;3.10;;;;;;;;;;5062086;28;20235;-70
2022/06/24 05:33:22;;;;;;;4.30;3.08;;;;;;;;;;5061943;28;20221;-70
2022/06/24 05:35:52;;;;;;;5.10;2.85;;;;;;;;;;5062452;28;20242;-70
2022/06/24 05:38:21;;;;;;;6.53;2.75;;;;;;;;;;5061554;28;20243;-70
2022/06/24 05:40:48;;;;;;;8.48;3.25;;;;;;;;;;5062162;28;20280;-70
2022/06/24 05:43:14;;;;;;;7.30;4.00;;;;;;;;;;5062073;28;20193;-70
2022/06/24 05:45:41;;;;;;;6.82;3.40;;;;;;;;;;5061983;28;20197;-70
2022/06/24 05:48:07;;;;;;;5.70;2.83;;;;;;;;;;5061615;28;20196;-70
2022/06/24 05:50:36;;;;;;;8.13;2.63;;;;;;;;;;5061905;28;20205;-70
2022/06/24 05:55:47;;;;;;;6.32;2.85;;;;;;;;;;5061906;28;20256;-70
2022/06/24 05:58:13;;;;;;;4.90;3.10;;;;;;;;;;5061641;28;20402;-70
2022/06/24 06:00:40;;;;;;;9.57;3.05;;;;;;;;;;5061905;28;20204;-70
2022/06/24 06:03:06;;;;;;;6.72;3.20;;;;;;;;;;5065738;28;20197;-70
2022/06/24 06:05:32;;;;;;;6.47;3.22;;;;;;;;;;5065355;28;20232;-70
2022/06/24 06:07:58;;;;;;;7.78;3.28;;;;;;;;;;5065732;28;20247;-70
2022/06/24 06:10:25;;;;;;;10.13;3.40;;;;;;;;;;5065763;28;20201;-70
2022/06/24 06:12:52;;;;;;;7.47;3.10;;;;;;;;;;5065556;28;20233;-70
2022/06/24 06:15:18;;;;;;;9.55;3.05;;;;;;;;;;5065590;28;20402;-70
2022/06/24 06:17:45;;;;;;;6.82;3.05;;;;;;;;;;5052995;28;20209;-64
2022/06/24 06:20:12;;;;;;;9.80;4.47;;;;;;;;;;5056264;28;20255;-65
2022/06/24 06:22:38;;;;;;;8.38;3.47;;;;;;;;;;5056589;28;20205;-62
2022/06/24 06:25:05;;;;;;;6.10;3.33;;;;;;;;;;5040001;28;20213;-62
2022/06/24 06:27:32;;;;;;;4.15;3.13;;;;;;;;;;5042355;28;20272;-62
2022/06/24 06:30:00;;;;;;;6.85;3.00;;;;;;;;;;5048785;28;20279;-62
2022/06/24 06:32:26;;;;;;;9.38;3.13;;;;;;;;;;5038253;28;20233;-62
2022/06/24 06:34:52;;;;;;;3.80;2.45;;;;;;;;;;5043734;28;20255;-62
2022/06/24 06:37:18;;;;;;;3.95;2.90;;;;;;;;;;5055627;28;20205;-62
2022/06/24 06:39:45;;;;;;;6.80;2.83;;;;;;;;;;5053713;28;20236;-63
2022/06/24 06:42:11;;;;;;;4.20;2.50;;;;;;;;;;5055343;28;20217;-63
2022/06/24 06:44:37;;;;;;;6.03;3.22;;;;;;;;;;5037548;28;20294;-62
2022/06/24 06:47:05;;;;;;;10.45;4.07;;;;;;;;;;5046857;28;20540;-61
2022/06/24 06:49:32;;;;;;;8.02;3.35;;;;;;;;;;5053300;28;20270;-62
2022/06/24 06:52:00;;;;;;;7.28;3.53;;;;;;;;;;5057296;28;20220;-62
2022/06/24 06:54:26;;;;;;;7.68;2.60;;;;;;;;;;5057738;28;20523;-63
2022/06/24 06:56:52;;;;;;;6.95;3.22;;;;;;;;;;5041586;28;20539;-63
2022/06/24 06:59:18;;;;;;;6.78;3.72;;;;;;;;;;5045566;28;20525;-64
2022/06/24 07:01:45;;;;;;;6.78;4.13;;;;;;;;;;5056438;28;20220;-63
2022/06/24 07:04:12;;;;;;;10.55;3.47;;;;;;;;;;5051111;28;20220;-64
2022/06/24 07:06:38;;;;;;;5.82;2.40;;;;;;;;;;5037495;28;20237;-63
2022/06/24 07:09:05;;;;;;;4.85;1.80;;;;;;;;;;5036283;28;20284;-62
2022/06/24 07:11:31;;;;;;;4.75;1.80;;;;;;;;;;5048688;28;20217;-63
2022/06/24 07:13:57;;;;;;;7.90;2.05;;;;;;;;;;5034864;28;20483;-63
2022/06/24 07:16:23;;;;;;;6.35;2.10;;;;;;;;;;5036424;28;20248;-63
2022/06/24 07:18:50;;;;;;;8.25;1.90;;;;;;;;;;5055574;28;20212;-63
2022/06/24 07:21:17;;;;;;;8.43;1.95;;;;;;;;;;5056409;28;20217;-63
2022/06/24 07:23:43;;;;;;;3.55;1.60;;;;;;;;;;5049545;28;20251;-64
2022/06/24 07:26:10;;;;;;;6.25;1.52;;;;;;;;;;5037767;28;20217;-64
2022/06/24 07:28:36;;;;;;;6.20;1.95;;;;;;;;;;5055562;28;20220;-64
2022/06/24 07:31:11;;;;;;;7.03;2.30;;;;;;;;;;5056049;28;20262;-63
2022/06/24 07:33:38;;;;;;;5.75;1.60;;;;;;;;;;5041871;28;20239;-63
2022/06/24 07:36:04;;;;;;;7.32;1.73;;;;;;;;;;5053316;28;20217;-64
2022/06/24 07:38:32;;;;;;;3.83;1.75;;;;;;;;;;5037909;28;20217;-63
2022/06/24 07:40:59;;;;;;;6.65;1.80;;;;;;;;;;5048591;28;20658;-64
2022/06/24 07:43:25;;;;;;;7.60;1.80;;;;;;;;;;5056011;28;20208;-63
2022/06/24 07:45:52;;;;;;;3.95;1.55;;;;;;;;;;5051749;28;20258;-63
2022/06/24 07:48:18;;;;;;;2.58;1.73;;;;;;;;;;5037507;28;20217;-64
2022/06/24 07:50:44;;;;;;;5.38;1.55;;;;;;;;;;5042613;28;20212;-63
2022/06/24 07:53:11;;;;;;;4.40;1.70;;;;;;;;;;5055970;28;20233;-64
2022/06/24 07:58:37;;;;;;;7.55;1.65;;;;;;;;;;4993353;28;20249;-63
2022/06/24 08:01:03;;;;;;;3.95;1.55;;;;;;;;;;4993397;28;20214;-63
2022/06/24 08:03:29;;;;;;;6.22;1.63;;;;;;;;;;5011026;28;20209;-63
2022/06/24 08:05:55;;;;;;;5.88;1.75;;;;;;;;;;5035565;28;20244;-64
2022/06/24 08:08:22;;;;;;;5.15;1.70;;;;;;;;;;5042762;28;20217;-63
2022/06/24 08:10:49;;;;;;;5.85;1.80;;;;;;;;;;5035161;28;20217;-63
2022/06/24 08:13:15;;;;;;;2.15;1.40;;;;;;;;;;5045938;28;20272;-64
2022/06/24 08:15:42;;;;;;;3.85;1.58;;;;;;;;;;5055305;28;20225;-63
2022/06/24 08:18:08;;;;;;;3.53;1.45;;;;;;;;;;5042307;28;20236;-63
2022/06/24 08:20:34;;;;;;;4.50;1.70;;;;;;;;;;5054492;28;20212;-63
2022/06/24 08:23:01;;;;;;;4.40;1.83;;;;;;;;;;5055051;28;20212;-63
2022/06/24 08:25:27;;;;;;;4.18;1.45;;;;;;;;;;5054976;28;20216;-64
2022/06/24 08:27:56;;;;;;;5.95;1.50;;;;;;;;;;5054783;28;20212;-63
2022/06/24 08:30:23;;;;;;;5.72;1.48;;;;;;;;;;5038979;28;20213;-64
2022/06/24 08:32:49;;;;;;;7.05;1.60;;;;;;;;;;5050689;28;20235;-64
2022/06/24 08:35:15;;;;;;;2.92;1.38;;;;;;;;;;5054254;28;20513;-64
2022/06/24 08:37:41;;;;;;;6.93;1.40;;;;;;;;;;5054119;28;20213;-63
2022/06/24 08:40:08;;;;;;;6.25;1.80;;;;;;;;;;5052964;28;20216;-63
2022/06/24 08:42:37;;;;;;;1.67;1.50;;;;;;;;;;5048074;28;20212;-64
2022/06/24 08:45:05;;;;;;;5.82;1.50;;;;;;;;;;5053987;28;20232;-63
2022/06/24 08:47:32;;;;;;;4.50;1.38;;;;;;;;;;5038223;28;20255;-63
2022/06/24 08:49:58;;;;;;;2.92;1.23;;;;;;;;;;5042961;28;20590;-63
2022/06/24 08:52:24;;;;;;;7.63;1.63;;;;;;;;;;5046687;28;20270;-63
2022/06/24 08:54:51;;;;;;;4.45;1.25;;;;;;;;;;5034515;28;20448;-63
2022/06/24 08:57:17;;;;;;;1.75;1.35;;;;;;;;;;5034079;28;21123;-63
2022/06/24 08:59:45;;;;;;;4.63;1.45;;;;;;;;;;5033932;28;20236;-63
2022/06/24 09:02:15;;;;;;;6.32;1.25;;;;;;;;;;5033762;28;20520;-63
2022/06/24 09:04:42;;;;;;;3.83;1.10;;;;;;;;;;5034139;28;20209;-63
2022/06/24 09:07:16;;;;;;;8.65;1.00;;;;;;;;;;5047062;28;20307;-63
2022/06/24 09:09:43;;;;;;;1.67;1.15;;;;;;;;;;5049225;28;20212;-63
2022/06/24 09:12:09;;;;;;;3.72;1.20;;;;;;;;;;5046763;28;20231;-63
2022/06/24 09:14:45;;;;;;;3.70;0.93;;;;;;;;;;5045659;28;20225;-63
2022/06/24 09:17:12;;;;;;;5.57;1.20;;;;;;;;;;5038697;28;20212;-63
2022/06/24 09:19:40;;;;;;;2.28;1.15;;;;;;;;;;5047889;28;20240;-63
2022/06/24 09:22:06;;;;;;;2.45;1.00;;;;;;;;;;5033927;28;20453;-63
2022/06/24 09:24:43;;;;;;;1.55;0.80;;;;;;;;;;5033540;28;20517;-63
2022/06/24 09:27:09;;;;;;;3.15;1.00;;;;;;;;;;5033704;28;20263;-63
2022/06/24 09:29:36;;;;;;;4.20;1.00;;;;;;;;;;5033187;28;20529;-63
2022/06/24 09:32:04;;;;;;;2.35;1.17;;;;;;;;;;5033198;28;20300;-63
2022/06/24 09:34:30;;;;;;;3.15;2.13;;;;;;;;;;5033192;28;20241;-63
2022/06/24 09:36:58;;;;;;;4.53;1.67;;;;;;;;;;5042380;28;20212;-63
2022/06/24 09:39:24;;;;;;;3.15;1.02;;;;;;;;;;5052815;28;20216;-63
2022/06/24 09:41:53;;;;;;;3.70;0.77;;;;;;;;;;5040165;28;20271;-63
2022/06/24 09:44:19;;;;;;;3.92;0.95;;;;;;;;;;5054911;28;20208;-64
2022/06/24 09:46:46;;;;;;;2.75;0.90;;;;;;;;;;5054651;28;20200;-63
2022/06/24 09:49:12;;;;;;;3.10;1.00;;;;;;;;;;5059053;28;20223;-63
2022/06/24 09:51:39;;;;;;;2.03;1.42;;;;;;;;;;5049447;28;20262;-63
2022/06/24 09:54:07;;;;;;;4.53;1.30;;;;;;;;;;5039738;28;20252;-63
2022/06/24 09:56:34;;;;;;;2.40;0.93;;;;;;;;;;5057191;28;20506;-63
2022/06/24 10:01:41;;;;;;;2.03;0.90;;;;;;;;;;5037463;28;20413;-64
2022/06/24 10:04:09;;;;;;;3.78;0.85;;;;;;;;;;5059797;28;20215;-64
2022/06/24 10:06:36;;;;;;;1.00;0.90;;;;;;;;;;5058590;28;20282;-64
2022/06/24 10:09:04;;;;;;;1.58;0.90;;;;;;;;;;5054797;28;20238;-64
2022/06/24 10:11:33;;;;;;;3.35;1.05;;;;;;;;;;5039676;28;20217;-64
2022/06/24 10:14:00;;;;;;;4.93;1.10;;;;;;;;;;5039852;28;20224;-66
2022/06/24 10:16:26;;;;;;;2.08;0.80;;;;;;;;;;5042047;28;20452;-73
2022/06/24 10:18:54;;;;;;;1.48;0.80;;;;;;;;;;5055119;28;20254;-73
2022/06/24 10:21:20;;;;;;;1.98;0.82;;;;;;;;;;5059733;28;20734;-73
2022/06/24 10:23:50;;;;;;;2.72;0.80;;;;;;;;;;5046730;28;20219;-73
2022/06/24 10:26:17;;;;;;;2.22;0.88;;;;;;;;;;5043712;28;20757;-73
2022/06/24 10:32:09;;;;;;;2.42;1.05;;;;;;;;;;5111820;27;20637;-73
2022/06/24 10:34:41;;;;;;;2.05;0.80;;;;;;;;;;5109148;28;20248;-71
2022/06/24 10:37:23;;;;;;;1.23;0.70;;;;;;;;;;5108121;28;20575;-73
2022/06/24 10:39:50;;;;;;;2.15;1.30;;;;;;;;;;5111418;28;20210;-72
2022/06/24 10:42:20;;;;;;;1.60;0.82;;;;;;;;;;5111193;28;20489;-72
2022/06/24 10:44:54;;;;;;;1.20;1.00;;;;;;;;;;5110891;28;20513;-72
2022/06/24 10:47:41;;;;;;;2.92;1.00;;;;;;;;;;5109982;28;20210;-72
2022/06/24 10:50:21;;;;;;;1.25;0.98;;;;;;;;;;5110747;28;20250;-72
2022/06/24 10:52:56;;;;;;;2.20;1.00;;;;;;;;;;5111208;28;20210;-71
2022/06/24 10:55:43;;;;;;;3.83;1.13;;;;;;;;;;5111542;28;20217;-71
2022/06/24 10:58:11;;;;;;;3.55;0.93;;;;;;;;;;5109995;28;20217;-71
2022/06/24 11:00:48;;;;;;;1.88;0.80;;;;;;;;;;5110714;28;20211;-72
2022/06/24 11:03:16;;;;;;;3.10;0.98;;;;;;;;;;5111246;28;20249;-71
2022/06/24 11:05:45;;;;;;;1.35;1.05;;;;;;;;;;5100021;28;20227;-71
2022/06/24 11:08:12;;;;;;;2.50;0.80;;;;;;;;;;5089081;28;20218;-71
2022/06/24 11:10:39;;;;;;;2.25;1.10;;;;;;;;;;5090129;28;20250;-72
2022/06/24 11:13:05;;;;;;;1.38;1.02;;;;;;;;;;5090502;28;20211;-71
2022/06/24 11:15:34;;;;;;;2.85;0.98;;;;;;;;;;5090643;28;20234;-71
2022/06/24 11:18:05;;;;;;;3.38;1.00;;;;;;;;;;5089804;28;20273;-72
2022/06/24 11:20:32;;;;;;;2.05;1.00;;;;;;;;;;5090588;28;20200;-71
2022/06/24 11:22:59;;;;;;;1.60;1.05;;;;;;;;;;5090835;28;20211;-71
2022/06/24 11:25:26;;;;;;;1.55;0.80;;;;;;;;;;5091815;28;20211;-71
2022/06/24 11:27:52;;;;;;;1.20;0.88;;;;;;;;;;5087011;28;20204;-71
2022/06/24 11:30:20;;;;;;;3.95;0.98;;;;;;;;;;5089854;28;20266;-71
2022/06/24 11:32:50;;;;;;;0.82;0.80;;;;;;;;;;5090151;28;20399;-71
2022/06/24 11:35:17;;;;;;;2.72;1.00;;;;;;;;;;5090761;28;20459;-71
2022/06/24 11:37:44;;;;;;;2.83;0.93;;;;;;;;;;5089954;28;20537;-71
2022/06/24 11:40:19;;;;;;;0.98;0.90;;;;;;;;;;5089008;28;20208;-71
2022/06/24 11:42:45;;;;;;;1.30;1.10;;;;;;;;;;5079564;28;20211;-71
2022/06/24 11:45:11;;;;;;;2.25;0.90;;;;;;;;;;5076565;28;20212;-71
2022/06/24 11:47:37;;;;;;;1.98;0.82;;;;;;;;;;5075724;28;20528;-72
2022/06/24 11:50:04;;;;;;;4.68;1.00;;;;;;;;;;5075968;28;20619;-72
2022/06/24 11:52:44;;;;;;;4.40;1.20;;;;;;;;;;5076852;28;20227;-71
2022/06/24 11:55:24;;;;;;;2.88;1.30;;;;;;;;;;5076649;28;20515;-71
2022/06/24 11:57:52;;;;;;;2.45;1.25;;;;;;;;;;5076226;28;20239;-72
2022/06/24 12:00:19;;;;;;;3.58;1.13;;;;;;;;;;5076381;28;20249;-71
2022/06/24 12:02:45;;;;;;;1.30;1.10;;;;;;;;;;5076737;28;20211;-71
2022/06/24 12:05:12;;;;;;;2.15;1.00;;;;;;;;;;5076193;28;20269;-72
2022/06/24 12:07:38;;;;;;;3.22;1.30;;;;;;;;;;5075622;28;20215;-72
2022/06/24 12:10:06;;;;;;;3.65;1.30;;;;;;;;;;5075604;28;20211;-71
2022/06/24 12:12:34;;;;;;;3.97;1.77;;;;;;;;;;5076325;28;20211;-72
2022/06/24 12:15:00;;;;;;;3.38;1.35;;;;;;;;;;5076356;28;20706;-72
2022/06/24 12:17:26;;;;;;;3.75;1.58;;;;;;;;;;5076050;28;20241;-70
2022/06/24 12:19:56;;;;;;;4.47;1.50;;;;;;;;;;5072710;28;20269;-73
2022/06/24 12:22:23;;;;;;;3.60;1.75;;;;;;;;;;5077185;28;20379;-71
2022/06/24 12:24:59;;;;;;;2.17;1.60;;;;;;;;;;5076042;28;20589;-71
2022/06/24 12:27:31;;;;;;;5.00;1.50;;;;;;;;;;5072634;28;20207;-71
2022/06/24 12:29:59;;;;;;;4.93;1.20;;;;;;;;;;5072879;28;20447;-72
2022/06/24 12:32:25;;;;;;;5.68;1.70;;;;;;;;;;5075919;28;20578;-71
2022/06/24 12:34:54;;;;;;;6.28;1.55;;;;;;;;;;5076329;28;20253;-73
2022/06/24 12:37:20;;;;;;;2.65;1.27;;;;;;;;;;5074943;28;20264;-70
2022/06/24 12:39:47;;;;;;;3.33;1.20;;;;;;;;;;5075735;28;20276;-71
2022/06/24 12:42:14;;;;;;;4.25;0.85;;;;;;;;;;5075533;28;20207;-70
2022/06/24 12:44:41;;;;;;;3.40;1.13;;;;;;;;;;5076216;28;20449;-72
2022/06/24 12:52:41;;;;;;;1.05;0.80;;;;;;;;;;5073907;28;20445;-71
2022/06/24 12:55:10;;;;;;;1.95;1.20;;;;;;;;;;5075403;28;20322;-70
2022/06/24 12:57:36;;;;;;;1.98;1.10;;;;;;;;;;5075577;28;20588;-70
2022/06/24 13:00:07;;;;;;;2.55;1.27;;;;;;;;;;5075226;28;20212;-71
2022/06/24 13:02:35;;;;;;;4.63;1.40;;;;;;;;;;5075439;28;20207;-70
2022/06/24 13:05:01;;;;;;;3.33;0.80;;;;;;;;;;5075062;28;20240;-71
2022/06/24 13:07:27;;;;;;;1.05;0.90;;;;;;;;;;5075113;28;20406;-71
2022/06/24 13:09:53;;;;;;;3.15;1.00;;;;;;;;;;5075560;28;20250;-71
2022/06/24 13:12:19;;;;;;;2.83;0.93;;;;;;;;;;5075389;28;20285;-71
2022/06/24 13:14:46;;;;;;;1.67;0.70;;;;;;;;;;5075015;28;20235;-70
2022/06/24 13:17:12;;;;;;;0.70;0.70;;;;;;;;;;5074168;28;20218;-71
2022/06/24 13:19:40;;;;;;;1.33;1.00;;;;;;;;;;5075430;28;20250;-71
2022/06/24 13:22:06;;;;;;;2.35;0.90;;;;;;;;;;5074884;28;20504;-71
2022/06/24 13:24:33;;;;;;;1.70;1.02;;;;;;;;;;5075006;28;20212;-72
2022/06/24 13:27:02;;;;;;;1.08;1.00;;;;;;;;;;5074386;28;20211;-71
2022/06/24 13:29:28;;;;;;;1.95;1.52;;;;;;;;;;5074696;28;20333;-71
2022/06/24 13:31:54;;;;;;;1.95;1.95;;;;;;;;;;5075221;28;20228;-69
2022/06/24 13:34:20;;;;;;;1.38;1.27;;;;;;;;;;5073964;28;20387;-63
2022/06/24 13:36:48;;;;;;;1.52;1.40;;;;;;;;;;5074043;28;20492;-63
2022/06/24 13:39:14;;;;;;;2.40;1.98;;;;;;;;;;5074410;28;20212;-62
2022/06/24 13:41:41;;;;;;;7.90;3.45;;;;;;;;;;5076050;28;20215;-63
2022/06/24 13:44:08;;;;;;;9.45;5.78;;;;;;;;;;5082136;28;20200;-61
2022/06/24 13:46:34;;;;;;;4.78;3.20;;;;;;;;;;5082594;28;20242;-61
2022/06/24 13:49:01;;;;;;;7.03;1.52;;;;;;;;;;5082563;28;20200;-61
2022/06/24 13:51:27;;;;;;;4.60;1.45;;;;;;;;;;5082469;28;20220;-62
2022/06/24 13:53:54;;;;;;;6.10;2.58;;;;;;;;;;5082394;28;20241;-62
2022/06/24 13:56:21;;;;;;;5.53;1.40;;;;;;;;;;5082130;28;20234;-62
2022/06/24 13:58:48;;;;;;;5.57;2.30;;;;;;;;;;5082291;28;20200;-62
2022/06/24 14:01:14;;;;;;;9.18;2.90;;;;;;;;;;5082560;28;20196;-61
2022/06/24 14:03:41;;;;;;;10.07;3.15;;;;;;;;;;5082463;28;20212;-62
2022/06/24 14:06:07;;;;;;;11.27;3.35;;;;;;;;;;5081747;28;20287;-62
2022/06/24 14:08:33;;;;;;;7.03;2.72;;;;;;;;;;5082683;28;20234;-62
2022/06/24 14:11:01;;;;;;;6.60;2.83;;;;;;;;;;5082177;28;20414;-61
2022/06/24 14:13:27;;;;;;;7.45;2.97;;;;;;;;;;5082456;28;20200;-62
2022/06/24 14:15:53;;;;;;;8.98;2.65;;;;;;;;;;5082374;28;20202;-61
2022/06/24 14:18:20;;;;;;;7.38;3.13;;;;;;;;;;5082243;28;20204;-61
2022/06/24 14:20:46;;;;;;;5.15;3.08;;;;;;;;;;5082239;28;20203;-61
2022/06/24 14:25:56;;;;;;;6.47;3.10;;;;;;;;;;5082162;28;20262;-61
2022/06/24 14:28:24;;;;;;;3.70;2.72;;;;;;;;;;5082037;28;20196;-62
2022/06/24 14:30:50;;;;;;;8.77;4.00;;;;;;;;;;5081499;28;20385;-61
2022/06/24 14:33:16;;;;;;;12.52;3.65;;;;;;;;;;5081552;28;20197;-62
2022/06/24 14:35:43;;;;;;;4.93;2.72;;;;;;;;;;5081513;28;20204;-63
2022/06/24 14:40:53;;;;;;;4.25;3.88;;;;;;;;;;5081361;28;20358;-62
2022/06/24 14:43:19;;;;;;;5.85;2.88;;;;;;;;;;5081601;28;20499;-62
2022/06/24 14:45:48;;;;;;;2.58;2.20;;;;;;;;;;5081718;28;20211;-61
2022/06/24 14:48:15;;;;;;;4.63;2.85;;;;;;;;;;5081189;28;20196;-62
2022/06/24 14:50:41;;;;;;;2.13;0.90;;;;;;;;;;5081401;28;20215;-61
2022/06/24 14:53:07;;;;;;;2.53;1.55;;;;;;;;;;5081573;28;20262;-61
2022/06/24 14:55:34;;;;;;;5.65;1.30;;;;;;;;;;5081823;28;20196;-61
2022/06/24 14:58:00;;;;;;;2.20;0.95;;;;;;;;;;5081250;28;20212;-62
2022/06/24 15:00:28;;;;;;;1.00;1.00;;;;;;;;;;5081449;28;20254;-62
2022/06/24 15:02:56;;;;;;;2.35;1.10;;;;;;;;;;5081224;28;20611;-61
2022/06/24 15:05:22;;;;;;;2.70;1.50;;;;;;;;;;5081243;28;20416;-62
2022/06/24 15:07:48;;;;;;;0.95;0.95;;;;;;;;;;5081151;28;20386;-61
2022/06/24 15:10:15;;;;;;;3.55;1.13;;;;;;;;;;5081226;28;20196;-62
2022/06/24 15:12:41;;;;;;;1.20;1.15;;;;;;;;;;5081155;28;20260;-62
2022/06/24 15:15:08;;;;;;;3.42;1.08;;;;;;;;;;5081268;28;20242;-62